createdAt,value
2023-06-21T00:00:47.343Z,4.95
2023-06-21T00:03:16.577Z,4.25
2023-06-21T00:05:45.182Z,3.92
2023-06-21T00:08:14.333Z,4.05
2023-06-21T00:10:42.856Z,3.60
2023-06-21T00:13:12.807Z,4.63
2023-06-21T00:15:41.317Z,4.22
2023-06-21T00:18:09.917Z,4.63
2023-06-21T00:20:39.122Z,4.65
2023-06-21T00:23:09.719Z,5.03
2023-06-21T00:25:39.610Z,5.50
2023-06-21T00:28:08.557Z,4.73
2023-06-21T00:30:38.688Z,4.35
2023-06-21T00:33:07.298Z,4.90
2023-06-21T00:35:36.141Z,4.15
2023-06-21T00:38:07.083Z,4.90
2023-06-21T00:40:36.330Z,5.30
2023-06-21T00:43:05.998Z,5.22
2023-06-21T00:45:41.511Z,5.72
2023-06-21T00:48:11.535Z,5.60
2023-06-21T00:50:40.814Z,5.23
2023-06-21T00:53:10.205Z,5.22
2023-06-21T00:55:41.865Z,5.25
2023-06-21T00:58:12.967Z,5.68
2023-06-21T01:00:42.603Z,5.68
2023-06-21T01:03:12.742Z,5.18
2023-06-21T01:05:41.830Z,4.55
2023-06-21T01:08:24.495Z,4.65
2023-06-21T01:11:07.330Z,5.57
2023-06-21T01:13:53.399Z,4.80
2023-06-21T01:16:26.100Z,4.88
2023-06-21T01:18:57.004Z,4.82
2023-06-21T01:21:29.815Z,5.15
2023-06-21T01:24:15.572Z,4.25
2023-06-21T01:27:04.936Z,4.05
2023-06-21T01:29:39.230Z,4.38
2023-06-21T01:32:09.891Z,4.32
2023-06-21T01:34:39.024Z,4.22
2023-06-21T01:37:10.369Z,4.40
2023-06-21T01:39:39.173Z,4.35
2023-06-21T01:42:08.337Z,4.68
2023-06-21T01:44:38.655Z,5.03
2023-06-21T01:47:08.873Z,4.47
2023-06-21T01:49:40.511Z,4.93
2023-06-21T01:52:10.430Z,4.30
2023-06-21T01:54:44.211Z,4.30
2023-06-21T01:57:13.790Z,4.80
2023-06-21T01:59:44.074Z,3.70
2023-06-21T02:02:13.762Z,3.92
2023-06-21T02:04:44.012Z,4.32
2023-06-21T02:07:15.196Z,4.85
2023-06-21T02:09:45.566Z,4.68
2023-06-21T02:12:14.488Z,4.40
2023-06-21T02:14:44.481Z,4.45
2023-06-21T02:17:13.181Z,4.20
2023-06-21T02:19:41.855Z,4.80
2023-06-21T02:22:12.161Z,4.97
2023-06-21T02:24:41.051Z,4.93
2023-06-21T02:27:10.296Z,4.93
2023-06-21T02:29:43.898Z,5.03
2023-06-21T02:32:12.479Z,4.53
2023-06-21T02:34:40.945Z,4.70
2023-06-21T02:37:13.527Z,4.55
2023-06-21T02:39:42.186Z,4.97
2023-06-21T02:42:12.383Z,5.20
2023-06-21T02:44:41.152Z,5.00
2023-06-21T02:47:11.112Z,5.72
2023-06-21T02:49:39.642Z,5.87
2023-06-21T02:52:09.507Z,6.00
2023-06-21T02:54:38.136Z,6.35
2023-06-21T02:57:08.099Z,5.82
2023-06-21T02:59:38.518Z,5.95
2023-06-21T03:02:07.837Z,6.20
2023-06-21T03:04:39.197Z,6.50
2023-06-21T03:07:09.286Z,6.93
2023-06-21T03:09:37.986Z,7.22
2023-06-21T03:12:10.011Z,6.85
2023-06-21T03:14:39.887Z,6.78
2023-06-21T03:17:11.880Z,7.00
2023-06-21T03:19:41.918Z,6.93
2023-06-21T03:22:11.931Z,6.13
2023-06-21T03:24:41.199Z,5.95
2023-06-21T03:27:09.886Z,6.35
2023-06-21T03:29:39.437Z,6.40
2023-06-21T03:32:09.309Z,6.40
2023-06-21T03:34:39.000Z,5.75
2023-06-21T03:37:09.280Z,9.98
2023-06-21T03:39:38.518Z,5.88
2023-06-21T03:42:07.983Z,6.63
2023-06-21T03:44:37.626Z,6.65
2023-06-21T03:47:07.045Z,5.45
2023-06-21T03:49:36.137Z,5.07
2023-06-21T03:52:05.437Z,5.20
2023-06-21T03:54:35.729Z,6.07
2023-06-21T03:57:04.287Z,6.20
2023-06-21T03:59:33.242Z,5.75
2023-06-21T04:02:02.267Z,4.72
2023-06-21T04:04:30.938Z,5.65
2023-06-21T04:06:59.625Z,5.60
2023-06-21T04:09:28.265Z,5.82
2023-06-21T04:12:00.065Z,6.10
2023-06-21T04:14:29.647Z,5.95
2023-06-21T04:16:58.224Z,6.40
2023-06-21T04:19:26.953Z,6.15
2023-06-21T04:21:55.559Z,6.35
2023-06-21T04:24:24.466Z,5.72
2023-06-21T04:26:53.766Z,6.32
2023-06-21T04:29:24.114Z,5.95
2023-06-21T04:31:53.560Z,5.75
2023-06-21T04:34:22.283Z,5.97
2023-06-21T04:36:51.056Z,6.30
2023-06-21T04:39:21.797Z,6.70
2023-06-21T04:46:51.234Z,8.30
2023-06-21T04:49:20.044Z,8.50
2023-06-21T04:51:48.894Z,7.75
2023-06-21T04:54:18.480Z,7.70
2023-06-21T04:56:47.072Z,8.68
2023-06-21T04:59:15.790Z,7.97
2023-06-21T05:01:44.403Z,8.23
2023-06-21T05:04:14.648Z,7.05
2023-06-21T05:06:43.392Z,7.82
2023-06-21T05:09:12.106Z,7.20
2023-06-21T05:11:40.867Z,7.03
2023-06-21T05:14:09.665Z,6.80
2023-06-21T05:16:39.355Z,7.82
2023-06-21T05:19:08.694Z,7.40
2023-06-21T05:21:38.710Z,7.18
2023-06-21T05:24:07.714Z,7.40
2023-06-21T05:26:36.305Z,6.78
2023-06-21T05:29:05.031Z,7.40
2023-06-21T05:31:33.649Z,7.47
2023-06-21T05:34:05.205Z,6.95
2023-06-21T05:36:34.052Z,7.30
2023-06-21T05:39:04.650Z,6.97
2023-06-21T05:44:02.914Z,6.93
2023-06-21T05:46:31.822Z,7.35
2023-06-21T05:49:00.406Z,5.88
2023-06-21T05:51:29.323Z,7.65
2023-06-21T05:53:57.922Z,5.97
2023-06-21T05:56:29.001Z,6.88
2023-06-21T05:58:57.801Z,6.03
2023-06-21T06:01:27.093Z,6.28
2023-06-21T06:03:55.794Z,5.78
2023-06-21T06:06:24.533Z,5.22
2023-06-21T06:08:53.224Z,6.43
2023-06-21T06:11:21.769Z,6.70
2023-06-21T06:13:52.089Z,6.75
2023-06-21T06:16:20.742Z,6.50
2023-06-21T06:18:49.311Z,7.30
2023-06-21T06:21:22.757Z,6.97
2023-06-21T06:23:52.610Z,7.05
2023-06-21T06:26:24.855Z,7.95
2023-06-21T06:28:55.800Z,7.57
2023-06-21T06:31:27.330Z,6.45
2023-06-21T06:33:56.269Z,8.25
2023-06-21T06:36:24.858Z,6.95
2023-06-21T06:38:54.849Z,6.63
2023-06-21T06:41:23.463Z,6.70
2023-06-21T06:43:56.538Z,6.65
2023-06-21T06:46:25.193Z,6.10
2023-06-21T06:48:53.764Z,5.88
2023-06-21T06:51:22.594Z,6.68
2023-06-21T06:53:51.127Z,7.28
2023-06-21T06:56:19.809Z,6.22
2023-06-21T06:58:48.417Z,6.10
2023-06-21T07:01:18.568Z,5.63
2023-06-21T07:03:47.396Z,5.25
2023-06-21T07:06:18.444Z,5.28
2023-06-21T07:08:48.449Z,5.43
2023-06-21T07:11:17.052Z,5.20
2023-06-21T07:13:45.741Z,5.00
2023-06-21T07:16:14.551Z,5.15
2023-06-21T07:18:44.586Z,4.53
2023-06-21T07:21:13.191Z,5.30
2023-06-21T07:23:41.946Z,4.78
2023-06-21T07:26:11.105Z,5.80
2023-06-21T07:28:39.730Z,4.70
2023-06-21T07:31:08.434Z,4.20
2023-06-21T07:33:37.002Z,4.22
2023-06-21T07:36:08.362Z,4.30
2023-06-21T07:38:37.093Z,4.30
2023-06-21T07:41:05.694Z,4.28
2023-06-21T07:43:34.309Z,4.18
2023-06-21T07:46:14.502Z,3.60
2023-06-21T07:48:43.992Z,3.67
2023-06-21T07:51:13.989Z,3.63
2023-06-21T07:53:42.508Z,4.13
2023-06-21T07:56:15.466Z,3.20
2023-06-21T07:58:44.820Z,3.92
2023-06-21T08:01:14.213Z,3.80
2023-06-21T08:03:43.285Z,4.77
2023-06-21T08:06:13.867Z,4.18
2023-06-21T08:08:42.500Z,3.63
2023-06-21T08:11:11.587Z,4.15
2023-06-21T08:13:40.209Z,3.78
2023-06-21T08:16:08.954Z,3.80
2023-06-21T08:18:38.184Z,4.18
2023-06-21T08:21:07.144Z,4.00
2023-06-21T08:23:37.340Z,4.00
2023-06-21T08:28:34.385Z,3.53
2023-06-21T08:31:03.043Z,3.88
2023-06-21T08:33:31.641Z,3.20
2023-06-21T08:36:00.300Z,3.47
2023-06-21T08:38:29.272Z,3.13
2023-06-21T08:41:04.623Z,3.53
2023-06-21T08:43:34.013Z,3.38
2023-06-21T08:46:07.910Z,3.40
2023-06-21T08:48:38.666Z,3.35
2023-06-21T08:51:07.870Z,2.72
2023-06-21T08:53:42.205Z,2.90
2023-06-21T08:56:15.867Z,3.08
2023-06-21T08:58:52.064Z,2.90
2023-06-21T09:01:24.551Z,2.83
2023-06-21T09:03:58.899Z,3.13
2023-06-21T09:06:29.393Z,3.15
2023-06-21T09:08:59.555Z,3.30
2023-06-21T09:13:58.779Z,3.65
2023-06-21T09:16:28.344Z,3.60
2023-06-21T09:18:58.321Z,4.10
2023-06-21T09:21:27.871Z,3.70
2023-06-21T09:23:56.967Z,4.00
2023-06-21T09:26:25.517Z,4.10
2023-06-21T09:28:55.547Z,4.00
2023-06-21T09:31:24.373Z,4.45
2023-06-21T09:33:54.249Z,4.28
2023-06-21T09:36:22.921Z,4.00
2023-06-21T09:38:51.524Z,3.67
2023-06-21T09:41:20.906Z,3.60
2023-06-21T09:43:50.745Z,3.78
2023-06-21T09:46:20.842Z,3.88
2023-06-21T09:48:50.138Z,4.18
2023-06-21T09:51:20.116Z,3.55
2023-06-21T09:53:49.041Z,3.80
2023-06-21T09:56:20.082Z,3.85
2023-06-21T09:58:53.863Z,3.83
2023-06-21T10:01:25.342Z,3.95
2023-06-21T10:03:55.396Z,3.58
2023-06-21T10:06:30.619Z,3.25
2023-06-21T10:08:59.139Z,3.50
2023-06-21T10:11:29.142Z,3.50
2023-06-21T10:13:57.833Z,3.40
2023-06-21T10:16:29.342Z,4.03
2023-06-21T10:19:02.769Z,3.75
2023-06-21T10:21:33.884Z,3.22
2023-06-21T10:24:06.062Z,3.50
2023-06-21T10:26:36.068Z,3.70
2023-06-21T10:29:05.141Z,3.03
2023-06-21T10:31:36.131Z,3.45
2023-06-21T10:34:10.027Z,3.80
2023-06-21T10:36:44.952Z,4.30
2023-06-21T10:39:14.369Z,3.58
2023-06-21T10:41:44.174Z,3.90
2023-06-21T10:44:13.795Z,3.90
2023-06-21T10:46:46.610Z,3.88
2023-06-21T10:49:18.985Z,3.25
2023-06-21T10:51:49.734Z,4.00
2023-06-21T10:54:18.914Z,3.30
2023-06-21T10:56:48.096Z,4.40
2023-06-21T10:59:17.526Z,3.15
2023-06-21T11:01:47.746Z,3.63
2023-06-21T11:04:16.425Z,3.38
2023-06-21T11:06:45.393Z,3.35
2023-06-21T11:09:19.446Z,3.30
2023-06-21T11:11:52.302Z,3.58
2023-06-21T11:14:28.707Z,3.40
2023-06-21T11:17:12.827Z,3.15
2023-06-21T11:19:41.817Z,2.97
2023-06-21T11:22:17.089Z,3.30
2023-06-21T11:25:01.939Z,3.05
2023-06-21T11:27:30.914Z,3.20
2023-06-21T11:30:05.149Z,3.20
2023-06-21T11:32:39.673Z,3.30
2023-06-21T11:35:11.486Z,3.47
2023-06-21T11:37:42.561Z,3.25
2023-06-21T11:40:13.018Z,2.83
2023-06-21T11:42:46.479Z,3.10
2023-06-21T11:45:22.042Z,3.53
2023-06-21T11:48:14.366Z,4.00
2023-06-21T11:50:45.098Z,3.22
2023-06-21T11:53:19.845Z,3.40
2023-06-21T11:55:50.624Z,3.30
2023-06-21T11:58:19.595Z,3.33
2023-06-21T12:00:48.351Z,2.75
2023-06-21T12:03:19.592Z,2.95
2023-06-21T12:05:56.670Z,3.13
2023-06-21T12:08:28.019Z,3.53
2023-06-21T12:10:59.479Z,3.30
2023-06-21T12:13:28.987Z,3.30
2023-06-21T12:15:58.909Z,3.08
2023-06-21T12:18:30.333Z,3.28
2023-06-21T12:21:00.819Z,3.70
2023-06-21T12:23:30.927Z,3.45
2023-06-21T12:26:01.637Z,3.17
2023-06-21T12:28:30.479Z,2.75
2023-06-21T12:31:00.208Z,3.05
2023-06-21T12:33:31.516Z,2.97
2023-06-21T12:36:15.310Z,2.90
2023-06-21T12:38:45.850Z,3.17
2023-06-21T12:41:17.823Z,3.30
2023-06-21T12:43:47.528Z,2.53
2023-06-21T12:46:16.136Z,3.05
2023-06-21T12:48:48.648Z,3.42
2023-06-21T12:51:25.020Z,3.70
2023-06-21T12:53:58.401Z,3.58
2023-06-21T12:56:29.837Z,3.40
2023-06-21T12:58:58.646Z,2.90
2023-06-21T13:01:27.538Z,3.40
2023-06-21T13:03:58.630Z,3.50
2023-06-21T13:06:28.886Z,3.28
2023-06-21T13:08:58.392Z,3.25
2023-06-21T13:11:28.387Z,3.45
2023-06-21T13:13:57.446Z,2.97
2023-06-21T13:16:26.232Z,3.08
2023-06-21T13:18:56.180Z,2.90
2023-06-21T13:21:27.235Z,3.40
2023-06-21T13:23:58.279Z,3.42
2023-06-21T13:26:27.130Z,3.90
2023-06-21T13:28:55.689Z,4.05
2023-06-21T13:31:25.225Z,3.88
2023-06-21T13:33:54.182Z,4.13
2023-06-21T13:36:22.837Z,4.00
2023-06-21T13:38:52.893Z,3.95
2023-06-21T13:41:21.470Z,4.32
2023-06-21T13:43:50.553Z,4.30
2023-06-21T13:46:19.193Z,4.20
2023-06-21T13:48:47.805Z,4.13
2023-06-21T13:51:16.460Z,3.90
2023-06-21T13:53:45.891Z,4.50
2023-06-21T13:56:15.980Z,3.63
2023-06-21T13:58:46.430Z,3.58
2023-06-21T14:01:15.234Z,3.95
2023-06-21T14:03:43.830Z,3.63
2023-06-21T14:06:12.684Z,3.88
2023-06-21T14:08:41.186Z,4.03
2023-06-21T14:11:09.709Z,3.70
2023-06-21T14:13:39.567Z,4.35
2023-06-21T14:16:08.119Z,3.63
2023-06-21T14:18:47.294Z,3.67
2023-06-21T14:21:16.628Z,4.13
2023-06-21T14:23:45.638Z,4.07
2023-06-21T14:26:14.385Z,3.72
2023-06-21T14:28:44.559Z,4.07
2023-06-21T14:31:13.230Z,3.95
2023-06-21T14:33:41.771Z,4.25
2023-06-21T14:36:10.494Z,3.70
2023-06-21T14:38:39.596Z,3.90
2023-06-21T14:41:08.239Z,4.38
2023-06-21T14:43:36.833Z,4.00
2023-06-21T14:46:08.340Z,4.22
2023-06-21T14:48:37.386Z,3.72
2023-06-21T14:51:12.077Z,3.58
2023-06-21T14:53:40.697Z,4.78
2023-06-21T14:56:10.306Z,3.80
2023-06-21T14:58:39.380Z,4.15
2023-06-21T15:01:09.529Z,3.75
2023-06-21T15:03:38.472Z,4.00
2023-06-21T15:06:07.349Z,4.05
2023-06-21T15:08:35.897Z,3.95
2023-06-21T15:11:06.745Z,5.18
2023-06-21T15:13:36.915Z,4.15
2023-06-21T15:16:05.869Z,4.07
2023-06-21T15:18:36.011Z,4.30
2023-06-21T15:21:04.942Z,4.20
2023-06-21T15:23:33.613Z,3.55
2023-06-21T15:26:03.332Z,4.32
2023-06-21T15:28:31.971Z,3.80
2023-06-21T15:31:01.823Z,4.60
2023-06-21T15:33:30.465Z,4.43
2023-06-21T15:36:00.463Z,4.22
2023-06-21T15:38:29.068Z,4.32
2023-06-21T15:40:59.616Z,3.80
2023-06-21T15:43:28.519Z,4.03
2023-06-21T15:45:58.525Z,4.18
2023-06-21T15:48:27.298Z,4.25
2023-06-21T15:50:55.996Z,4.57
2023-06-21T15:53:26.061Z,3.92
2023-06-21T15:55:54.732Z,3.80
2023-06-21T15:58:23.378Z,4.15
2023-06-21T16:00:51.975Z,4.18
2023-06-21T16:03:20.611Z,4.22
2023-06-21T16:05:51.619Z,3.70
2023-06-21T16:08:20.250Z,4.05
2023-06-21T16:10:56.528Z,4.60
2023-06-21T16:13:27.874Z,3.95
2023-06-21T16:15:57.106Z,4.07
2023-06-21T16:18:25.687Z,3.80
2023-06-21T16:20:57.046Z,4.85
2023-06-21T16:23:29.885Z,4.15
2023-06-21T16:25:59.959Z,4.55
2023-06-21T16:28:28.483Z,4.07
2023-06-21T16:30:57.113Z,5.03
2023-06-21T16:33:25.736Z,3.85
2023-06-21T16:35:55.369Z,4.63
2023-06-21T16:38:24.484Z,3.78
2023-06-21T16:40:53.287Z,3.95
2023-06-21T16:43:23.403Z,4.28
2023-06-21T16:45:52.139Z,3.83
2023-06-21T16:48:20.847Z,3.95
2023-06-21T16:50:49.736Z,3.75
2023-06-21T16:53:18.411Z,4.15
2023-06-21T16:55:47.030Z,4.10
2023-06-21T16:58:15.617Z,3.25
2023-06-21T17:00:45.691Z,3.95
2023-06-21T17:03:14.359Z,4.53
2023-06-21T17:05:43.085Z,4.05
2023-06-21T17:08:12.047Z,3.97
2023-06-21T17:10:40.632Z,3.60
2023-06-21T17:13:09.286Z,3.67
2023-06-21T17:15:38.034Z,3.80
2023-06-21T17:18:08.631Z,4.53
2023-06-21T17:20:37.221Z,4.05
2023-06-21T17:23:06.242Z,4.47
2023-06-21T17:25:34.797Z,4.60
2023-06-21T17:28:03.494Z,4.10
2023-06-21T17:30:32.243Z,4.22
2023-06-21T17:33:01.039Z,4.35
2023-06-21T17:35:31.490Z,4.20
2023-06-21T17:38:00.976Z,4.20
2023-06-21T17:40:29.465Z,4.13
2023-06-21T17:42:58.368Z,3.92
2023-06-21T17:45:27.315Z,5.43
2023-06-21T17:47:56.152Z,4.05
2023-06-21T17:50:24.866Z,4.85
2023-06-21T17:52:54.863Z,3.92
2023-06-21T17:55:23.524Z,3.67
2023-06-21T17:57:52.556Z,4.57
2023-06-21T18:00:23.659Z,4.18
2023-06-21T18:02:52.300Z,4.07
2023-06-21T18:05:22.532Z,4.30
2023-06-21T18:07:51.068Z,3.85
2023-06-21T18:10:21.462Z,4.72
2023-06-21T18:15:18.306Z,4.03
2023-06-21T18:17:46.919Z,4.10
2023-06-21T18:20:15.705Z,3.97
2023-06-21T18:22:44.523Z,3.72
2023-06-21T18:25:13.762Z,4.28
2023-06-21T18:27:44.000Z,3.92
2023-06-21T18:30:13.506Z,3.80
2023-06-21T18:32:42.155Z,4.30
2023-06-21T18:35:11.830Z,4.30
2023-06-21T18:37:41.191Z,4.30
2023-06-21T18:40:10.933Z,4.50
2023-06-21T18:42:40.104Z,3.90
2023-06-21T18:45:11.420Z,4.20
2023-06-21T18:47:41.017Z,4.65
2023-06-21T18:50:10.449Z,3.95
2023-06-21T18:52:39.126Z,4.68
2023-06-21T18:55:08.959Z,3.95
2023-06-21T18:57:37.602Z,4.30
2023-06-21T19:00:07.213Z,4.28
2023-06-21T19:02:37.647Z,4.37
2023-06-21T19:05:07.229Z,4.03
2023-06-21T19:07:35.986Z,5.10
2023-06-21T19:10:04.924Z,4.43
2023-06-21T19:12:33.532Z,4.43
2023-06-21T19:15:02.130Z,4.60
2023-06-21T19:17:30.993Z,5.05
2023-06-21T19:20:01.052Z,17.70
2023-06-21T19:22:31.479Z,32.67
2023-06-21T19:25:01.226Z,8.55
2023-06-21T19:27:29.781Z,5.27
2023-06-21T19:29:58.741Z,5.07
2023-06-21T19:32:28.105Z,5.22
2023-06-21T19:34:56.790Z,5.03
2023-06-21T19:37:26.908Z,5.32
2023-06-21T19:39:55.403Z,4.80
2023-06-21T19:42:23.965Z,5.55
2023-06-21T19:44:54.435Z,8.88
2023-06-21T19:47:26.106Z,9.25
2023-06-21T19:49:54.920Z,7.38
2023-06-21T19:52:23.346Z,7.20
2023-06-21T19:54:53.345Z,7.60
2023-06-21T19:57:21.923Z,7.20
2023-06-21T19:59:50.357Z,9.65
2023-06-21T20:02:19.102Z,17.05
2023-06-21T20:04:47.584Z,9.65
2023-06-21T20:07:17.171Z,9.73
2023-06-21T20:09:45.782Z,7.47
2023-06-21T20:12:16.457Z,6.32
2023-06-21T20:17:13.581Z,6.55
2023-06-21T20:19:42.145Z,6.80
2023-06-21T20:22:10.752Z,6.07
2023-06-21T20:24:39.293Z,7.13
2023-06-21T20:27:09.176Z,6.80
2023-06-21T20:29:39.134Z,6.40
2023-06-21T20:32:09.172Z,5.72
2023-06-21T20:34:38.740Z,6.13
2023-06-21T20:37:07.754Z,8.68
2023-06-21T20:39:36.645Z,7.82
2023-06-21T20:42:05.604Z,6.00
2023-06-21T20:44:34.525Z,6.05
2023-06-21T20:47:06.964Z,6.22
2023-06-21T20:49:35.468Z,5.50
2023-06-21T20:52:05.933Z,5.07
2023-06-21T20:54:34.558Z,5.57
2023-06-21T20:57:03.134Z,5.93
2023-06-21T20:59:31.693Z,6.50
2023-06-21T21:02:00.502Z,6.55
2023-06-21T21:04:30.615Z,8.43
2023-06-21T21:06:59.338Z,6.95
2023-06-21T21:09:28.936Z,7.65
2023-06-21T21:11:58.401Z,5.25
2023-06-21T21:14:26.925Z,5.85
2023-06-21T21:16:56.352Z,5.35
2023-06-21T21:19:25.009Z,5.80
2023-06-21T21:21:55.740Z,6.57
2023-06-21T21:26:52.710Z,5.57
2023-06-21T21:29:21.271Z,5.85
2023-06-21T21:31:53.687Z,6.07
2023-06-21T21:34:22.422Z,7.05
2023-06-21T21:36:51.133Z,6.22
2023-06-21T21:39:21.304Z,5.40
2023-06-21T21:41:49.891Z,5.88
2023-06-21T21:44:18.828Z,5.65
2023-06-21T21:46:47.392Z,8.45
2023-06-21T21:49:16.882Z,10.38
2023-06-21T21:51:45.397Z,7.75
2023-06-21T21:54:13.960Z,6.93
2023-06-21T21:56:44.699Z,6.75
2023-06-21T22:01:41.628Z,8.00
2023-06-21T22:04:10.277Z,6.82
2023-06-21T22:06:38.880Z,7.22
2023-06-21T22:09:07.394Z,7.28
2023-06-21T22:11:36.828Z,8.45
2023-06-21T22:14:06.970Z,7.15
2023-06-21T22:16:37.230Z,6.97
2023-06-21T22:19:06.965Z,7.88
2023-06-21T22:21:36.238Z,8.00
2023-06-21T22:24:05.333Z,7.68
2023-06-21T22:26:34.066Z,7.53
2023-06-21T22:29:02.644Z,7.93
2023-06-21T22:31:34.225Z,6.47
2023-06-21T22:34:02.809Z,6.85
2023-06-21T22:36:31.332Z,6.95
2023-06-21T22:38:59.853Z,7.15
2023-06-21T22:41:28.516Z,7.07
2023-06-21T22:43:57.245Z,6.13
2023-06-21T22:46:29.440Z,6.40
2023-06-21T22:49:04.775Z,6.05
2023-06-21T22:51:36.311Z,5.82
2023-06-21T22:54:05.215Z,6.40
2023-06-21T22:56:33.779Z,7.80
2023-06-21T22:59:02.385Z,7.13
2023-06-21T23:01:30.936Z,8.32
2023-06-21T23:04:01.883Z,8.02
2023-06-21T23:06:30.862Z,6.93
2023-06-21T23:09:05.080Z,7.72
2023-06-21T23:11:33.754Z,7.57
2023-06-21T23:14:02.242Z,7.05
2023-06-21T23:16:34.947Z,7.43
2023-06-21T23:19:07.366Z,7.57
2023-06-21T23:21:42.412Z,7.57
2023-06-21T23:24:11.150Z,8.18
2023-06-21T23:26:39.928Z,8.25
2023-06-21T23:29:12.586Z,8.13
2023-06-21T23:31:41.431Z,8.90
2023-06-21T23:34:16.206Z,9.77
2023-06-21T23:36:51.638Z,8.95
2023-06-21T23:39:20.384Z,8.52
2023-06-21T23:41:48.925Z,8.77
2023-06-21T23:44:17.502Z,9.20
2023-06-21T23:46:47.188Z,9.32
2023-06-21T23:49:17.177Z,7.95
2023-06-21T23:51:48.514Z,8.53
2023-06-21T23:54:17.052Z,9.20
2023-06-21T23:56:45.550Z,7.78
2023-06-21T23:59:15.958Z,8.10
